createdAt,value
2023-04-17T00:02:01.995Z,2.00
2023-04-17T00:04:31.444Z,1.90
2023-04-17T00:07:03.655Z,1.90
2023-04-17T00:09:32.742Z,1.90
2023-04-17T00:12:01.523Z,1.90
2023-04-17T00:14:30.117Z,1.90
2023-04-17T00:16:58.589Z,2.30
2023-04-17T00:19:27.176Z,2.00
2023-04-17T00:21:55.759Z,1.80
2023-04-17T00:24:24.343Z,2.10
2023-04-17T00:26:52.832Z,2.00
2023-04-17T00:29:21.930Z,1.80
2023-04-17T00:31:50.882Z,1.50
2023-04-17T00:34:20.017Z,2.10
2023-04-17T00:36:48.596Z,1.90
2023-04-17T00:39:17.593Z,2.10
2023-04-17T00:41:46.382Z,1.70
2023-04-17T00:44:15.081Z,2.10
2023-04-17T00:46:44.378Z,2.00
2023-04-17T00:49:14.286Z,1.90
2023-04-17T00:51:42.871Z,1.80
2023-04-17T00:54:12.594Z,2.10
2023-04-17T00:56:44.174Z,2.40
2023-04-17T00:59:17.285Z,2.40
2023-04-17T01:01:45.970Z,2.60
2023-04-17T01:04:15.090Z,2.10
2023-04-17T01:06:44.116Z,2.40
2023-04-17T01:09:14.186Z,2.40
2023-04-17T01:11:42.809Z,2.70
2023-04-17T01:14:11.803Z,1.80
2023-04-17T01:16:40.792Z,1.90
2023-04-17T01:19:10.115Z,1.40
2023-04-17T01:21:39.194Z,1.80
2023-04-17T01:24:08.802Z,2.00
2023-04-17T01:26:37.769Z,1.70
2023-04-17T01:29:07.208Z,2.00
2023-04-17T01:31:36.192Z,2.10
2023-04-17T01:34:04.784Z,2.30
2023-04-17T01:36:33.876Z,2.10
2023-04-17T01:39:02.467Z,2.00
2023-04-17T01:41:31.062Z,2.20
2023-04-17T01:44:00.036Z,1.80
2023-04-17T01:46:28.872Z,2.40
2023-04-17T01:48:57.615Z,2.10
2023-04-17T01:51:26.313Z,1.80
2023-04-17T01:53:55.296Z,1.50
2023-04-17T01:56:23.886Z,1.50
2023-04-17T01:58:52.678Z,1.40
2023-04-17T02:01:21.697Z,1.70
2023-04-17T02:03:50.483Z,1.60
2023-04-17T02:06:19.142Z,2.00
2023-04-17T02:08:47.771Z,1.70
2023-04-17T02:11:16.618Z,1.50
2023-04-17T02:13:45.202Z,2.00
2023-04-17T02:16:13.982Z,1.60
2023-04-17T02:18:43.704Z,1.30
2023-04-17T02:21:12.287Z,1.80
2023-04-17T02:23:41.429Z,1.80
2023-04-17T02:26:10.068Z,1.70
2023-04-17T02:28:38.870Z,1.90
2023-04-17T02:31:09.286Z,1.90
2023-04-17T02:33:39.002Z,2.00
2023-04-17T02:36:08.710Z,2.00
2023-04-17T02:38:40.261Z,2.00
2023-04-17T02:41:09.062Z,2.10
2023-04-17T02:43:38.063Z,2.50
2023-04-17T02:46:06.641Z,2.20
2023-04-17T02:48:35.317Z,3.00
2023-04-17T02:51:04.514Z,2.50
2023-04-17T02:53:33.002Z,2.80
2023-04-17T02:56:01.786Z,2.10
2023-04-17T02:58:31.305Z,3.00
2023-04-17T03:01:03.574Z,3.20
2023-04-17T03:03:35.580Z,3.70
2023-04-17T03:06:08.463Z,3.10
2023-04-17T03:08:39.028Z,3.30
2023-04-17T03:11:07.840Z,2.50
2023-04-17T03:13:37.351Z,3.40
2023-04-17T03:16:06.905Z,3.10
2023-04-17T03:18:43.366Z,2.90
2023-04-17T03:21:12.018Z,3.40
2023-04-17T03:23:41.763Z,3.50
2023-04-17T03:26:10.613Z,4.00
2023-04-17T03:28:39.627Z,3.30
2023-04-17T03:31:08.401Z,3.70
2023-04-17T03:33:38.213Z,3.20
2023-04-17T03:36:07.923Z,3.30
2023-04-17T03:38:37.258Z,4.00
2023-04-17T03:41:06.932Z,4.00
2023-04-17T03:43:35.522Z,3.50
2023-04-17T03:46:04.122Z,3.70
2023-04-17T03:48:32.895Z,4.30
2023-04-17T03:51:01.583Z,4.50
2023-04-17T03:53:31.286Z,4.60
2023-04-17T03:56:01.914Z,5.10
2023-04-17T03:58:34.217Z,4.40
2023-04-17T04:01:03.283Z,4.30
2023-04-17T04:03:34.103Z,5.10
2023-04-17T04:06:03.524Z,4.80
2023-04-17T04:08:32.103Z,3.60
2023-04-17T04:11:02.435Z,5.20
2023-04-17T04:13:36.454Z,5.40
2023-04-17T04:16:07.050Z,5.40
2023-04-17T04:18:37.435Z,5.10
2023-04-17T04:21:06.548Z,6.00
2023-04-17T04:23:41.490Z,4.50
2023-04-17T04:26:12.263Z,5.30
2023-04-17T04:28:45.360Z,5.40
2023-04-17T04:31:22.114Z,4.80
2023-04-17T04:33:55.469Z,5.70
2023-04-17T04:36:25.338Z,5.00
2023-04-17T04:39:07.029Z,3.70
2023-04-17T04:41:38.468Z,5.70
2023-04-17T04:44:08.299Z,5.80
2023-04-17T04:46:38.243Z,5.50
2023-04-17T04:49:07.412Z,5.20
2023-04-17T04:51:37.865Z,4.90
2023-04-17T04:54:08.611Z,4.80
2023-04-17T04:56:45.211Z,5.00
2023-04-17T04:59:14.981Z,4.20
2023-04-17T05:01:48.280Z,5.10
2023-04-17T05:04:18.900Z,4.90
2023-04-17T05:06:48.599Z,5.50
2023-04-17T05:09:18.172Z,5.10
2023-04-17T05:11:47.414Z,5.80
2023-04-17T05:14:16.100Z,5.10
2023-04-17T05:16:45.014Z,6.00
2023-04-17T05:19:14.726Z,5.40
2023-04-17T05:21:59.854Z,5.80
2023-04-17T05:24:29.071Z,6.30
2023-04-17T05:26:58.416Z,5.60
2023-04-17T05:29:27.715Z,7.00
2023-04-17T05:31:56.931Z,7.10
2023-04-17T05:34:40.103Z,6.80
2023-04-17T05:37:09.406Z,5.70
2023-04-17T05:39:38.526Z,5.50
2023-04-17T05:42:07.186Z,5.50
2023-04-17T05:44:35.793Z,6.80
2023-04-17T05:47:04.634Z,5.60
2023-04-17T05:49:33.244Z,2.70
2023-04-17T05:52:01.988Z,3.40
2023-04-17T05:54:30.621Z,4.50
2023-04-17T05:56:59.818Z,5.00
2023-04-17T05:59:28.601Z,6.10
2023-04-17T06:01:59.904Z,6.30
2023-04-17T06:04:29.664Z,6.40
2023-04-17T06:06:59.715Z,5.10
2023-04-17T06:09:28.542Z,4.50
2023-04-17T06:11:57.169Z,6.30
2023-04-17T06:14:25.848Z,6.70
2023-04-17T06:16:54.669Z,6.30
2023-04-17T06:19:26.545Z,6.20
2023-04-17T06:21:55.050Z,6.90
2023-04-17T06:24:23.501Z,5.40
2023-04-17T06:26:51.977Z,6.90
2023-04-17T06:29:20.667Z,6.50
2023-04-17T06:31:50.035Z,5.60
2023-04-17T06:34:19.955Z,5.30
2023-04-17T06:36:49.049Z,7.20
2023-04-17T06:39:18.368Z,7.70
2023-04-17T06:41:48.777Z,7.20
2023-04-17T06:44:24.528Z,6.70
2023-04-17T06:46:53.980Z,6.00
2023-04-17T06:49:22.648Z,7.40
2023-04-17T06:51:52.229Z,8.30
2023-04-17T06:54:20.932Z,6.80
2023-04-17T06:56:49.602Z,7.40
2023-04-17T06:59:19.230Z,7.10
2023-04-17T07:01:47.906Z,8.00
2023-04-17T07:04:18.230Z,7.00
2023-04-17T07:06:47.007Z,8.40
2023-04-17T07:09:15.488Z,7.90
2023-04-17T07:11:44.182Z,5.20
2023-04-17T07:14:13.146Z,7.10
2023-04-17T07:16:41.884Z,9.20
2023-04-17T07:19:10.896Z,8.20
2023-04-17T07:21:39.740Z,9.10
2023-04-17T07:24:08.634Z,8.80
2023-04-17T07:26:37.770Z,8.10
2023-04-17T07:29:07.033Z,8.50
2023-04-17T07:31:35.542Z,9.30
2023-04-17T07:34:05.534Z,9.00
2023-04-17T07:36:34.222Z,9.30
2023-04-17T07:39:03.021Z,9.40
2023-04-17T07:41:31.499Z,8.70
2023-04-17T07:44:03.522Z,7.80
2023-04-17T07:46:32.879Z,8.60
2023-04-17T07:49:01.629Z,8.80
2023-04-17T07:51:31.791Z,8.80
2023-04-17T07:54:00.563Z,6.00
2023-04-17T07:56:29.348Z,8.50
2023-04-17T07:58:58.748Z,6.40
2023-04-17T08:01:27.966Z,8.10
2023-04-17T08:03:56.843Z,8.20
2023-04-17T08:06:26.551Z,8.10
2023-04-17T08:08:55.132Z,5.20
2023-04-17T08:11:23.717Z,8.10
2023-04-17T08:13:52.512Z,8.00
2023-04-17T08:16:21.518Z,8.20
2023-04-17T08:18:50.087Z,8.60
2023-04-17T08:21:18.670Z,7.10
2023-04-17T08:23:47.562Z,7.30
2023-04-17T08:26:19.324Z,7.60
2023-04-17T08:28:47.912Z,9.60
2023-04-17T08:31:16.665Z,8.10
2023-04-17T08:33:45.592Z,8.60
2023-04-17T08:36:14.379Z,6.70
2023-04-17T08:38:45.317Z,7.30
2023-04-17T08:41:23.435Z,8.60
2023-04-17T08:43:52.358Z,9.20
2023-04-17T08:46:24.970Z,9.60
2023-04-17T08:48:53.680Z,8.10
2023-04-17T08:51:26.396Z,8.00
2023-04-17T08:53:55.769Z,8.80
2023-04-17T08:56:24.270Z,9.70
2023-04-17T08:58:52.714Z,8.00
2023-04-17T09:01:21.669Z,7.20
2023-04-17T09:03:53.152Z,8.50
2023-04-17T09:06:21.887Z,7.60
2023-04-17T09:08:57.423Z,8.70
2023-04-17T09:11:27.207Z,8.90
2023-04-17T09:13:56.020Z,8.70
2023-04-17T09:16:28.845Z,8.10
2023-04-17T09:19:07.268Z,9.70
2023-04-17T09:21:35.806Z,9.50
2023-04-17T09:24:06.644Z,9.50
2023-04-17T09:26:36.155Z,10.30
2023-04-17T09:29:04.637Z,10.10
2023-04-17T09:31:37.896Z,9.60
2023-04-17T09:34:09.208Z,9.00
2023-04-17T09:36:41.795Z,9.30
2023-04-17T09:39:21.032Z,8.40
2023-04-17T09:41:50.296Z,10.00
2023-04-17T09:44:28.124Z,10.80
2023-04-17T09:46:57.668Z,9.40
2023-04-17T09:49:56.176Z,9.50
2023-04-17T09:52:24.971Z,6.50
2023-04-17T09:54:54.631Z,8.70
2023-04-17T09:57:23.670Z,8.80
2023-04-17T09:59:52.972Z,6.70
2023-04-17T10:02:22.876Z,9.00
2023-04-17T10:04:51.675Z,9.20
2023-04-17T10:07:20.358Z,9.10
2023-04-17T10:09:48.940Z,6.60
2023-04-17T10:12:19.995Z,9.00
2023-04-17T10:14:51.839Z,6.80
2023-04-17T10:17:34.967Z,7.30
2023-04-17T10:20:17.859Z,8.90
2023-04-17T10:22:56.604Z,10.10
2023-04-17T10:25:29.329Z,9.50
2023-04-17T10:28:02.486Z,6.60
2023-04-17T10:31:03.636Z,9.50
2023-04-17T10:33:32.319Z,8.80
2023-04-17T10:36:01.109Z,9.70
2023-04-17T10:38:36.762Z,9.90
2023-04-17T10:41:09.666Z,9.10
2023-04-17T10:43:44.244Z,7.80
2023-04-17T10:46:14.787Z,9.80
2023-04-17T10:48:56.645Z,9.30
2023-04-17T10:51:28.152Z,9.30
2023-04-17T10:54:03.102Z,9.30
2023-04-17T10:56:45.098Z,8.20
2023-04-17T10:59:19.130Z,9.50
2023-04-17T11:01:51.227Z,8.10
2023-04-17T11:04:31.152Z,8.90
2023-04-17T11:07:01.245Z,6.10
2023-04-17T11:09:30.263Z,8.90
2023-04-17T11:12:03.474Z,8.60
2023-04-17T11:14:33.344Z,9.50
2023-04-17T11:17:02.603Z,6.80
2023-04-17T11:19:33.796Z,7.60
2023-04-17T11:22:03.111Z,8.30
2023-04-17T11:24:32.703Z,8.70
2023-04-17T11:27:02.356Z,9.70
2023-04-17T11:29:31.169Z,7.80
2023-04-17T11:32:01.109Z,10.10
2023-04-17T11:34:30.735Z,9.10
2023-04-17T11:37:01.573Z,8.70
2023-04-17T11:39:33.210Z,9.40
2023-04-17T11:42:05.590Z,8.50
2023-04-17T11:44:34.698Z,6.10
2023-04-17T11:47:04.499Z,8.30
2023-04-17T11:49:38.791Z,8.80
2023-04-17T11:52:07.621Z,9.80
2023-04-17T11:54:38.884Z,9.80
2023-04-17T11:57:14.382Z,8.50
2023-04-17T11:59:44.889Z,9.00
2023-04-17T12:02:15.439Z,8.10
2023-04-17T12:04:44.559Z,9.10
2023-04-17T12:07:24.832Z,8.10
2023-04-17T12:09:58.268Z,9.00
2023-04-17T12:12:27.211Z,6.00
2023-04-17T12:14:56.002Z,8.00
2023-04-17T12:17:24.512Z,8.30
2023-04-17T12:19:54.208Z,8.90
2023-04-17T12:22:23.589Z,7.80
2023-04-17T12:24:52.269Z,9.00
2023-04-17T12:27:21.887Z,7.80
2023-04-17T12:29:50.570Z,8.10
2023-04-17T12:32:19.269Z,8.90
2023-04-17T12:34:47.840Z,8.20
2023-04-17T12:37:16.741Z,7.30
2023-04-17T12:39:45.423Z,7.90
2023-04-17T12:42:14.000Z,5.80
2023-04-17T12:44:42.689Z,7.50
2023-04-17T12:47:11.273Z,6.90
2023-04-17T12:49:39.931Z,7.80
2023-04-17T12:52:08.558Z,8.50
2023-04-17T12:54:37.457Z,6.80
2023-04-17T12:57:06.137Z,5.40
2023-04-17T12:59:35.038Z,7.80
2023-04-17T13:02:03.670Z,7.20
2023-04-17T13:04:32.583Z,8.00
2023-04-17T13:07:01.484Z,6.70
2023-04-17T13:09:30.067Z,6.90
2023-04-17T13:11:59.079Z,5.80
2023-04-17T13:14:27.647Z,6.20
2023-04-17T13:16:56.994Z,7.10
2023-04-17T13:19:25.738Z,6.30
2023-04-17T13:21:54.320Z,6.60
2023-04-17T13:24:23.211Z,6.20
2023-04-17T13:26:52.524Z,6.80
2023-04-17T13:29:21.113Z,5.70
2023-04-17T13:31:49.991Z,5.80
2023-04-17T13:34:19.750Z,6.50
2023-04-17T13:36:49.004Z,6.00
2023-04-17T13:39:17.499Z,5.90
2023-04-17T13:41:46.695Z,6.40
2023-04-17T13:44:15.470Z,6.20
2023-04-17T13:46:44.474Z,5.60
2023-04-17T13:49:13.577Z,5.50
2023-04-17T13:51:44.233Z,6.70
2023-04-17T13:54:13.702Z,7.10
2023-04-17T13:56:42.901Z,5.70
2023-04-17T13:59:12.964Z,7.00
2023-04-17T14:01:43.057Z,5.50
2023-04-17T14:04:13.173Z,3.70
2023-04-17T14:06:44.976Z,5.60
2023-04-17T14:09:14.367Z,6.10
2023-04-17T14:11:43.631Z,5.30
2023-04-17T14:14:13.026Z,6.50
2023-04-17T14:16:41.827Z,7.80
2023-04-17T14:19:13.895Z,8.70
2023-04-17T14:21:43.589Z,7.50
2023-04-17T14:24:12.278Z,8.00
2023-04-17T14:26:42.340Z,7.60
2023-04-17T14:29:14.139Z,8.10
2023-04-17T14:31:43.153Z,7.80
2023-04-17T14:34:12.144Z,6.90
2023-04-17T14:39:10.103Z,7.30
2023-04-17T14:41:39.149Z,6.50
2023-04-17T14:44:08.022Z,7.20
2023-04-17T14:46:37.042Z,7.20
2023-04-17T14:49:05.606Z,4.00
2023-04-17T14:51:34.182Z,6.30
2023-04-17T14:54:02.770Z,7.40
2023-04-17T14:56:31.354Z,5.70
2023-04-17T14:59:00.737Z,6.80
2023-04-17T15:01:29.353Z,6.70
2023-04-17T15:03:58.813Z,6.50
2023-04-17T15:06:27.846Z,7.40
2023-04-17T15:08:56.935Z,5.60
2023-04-17T15:11:25.619Z,7.60
2023-04-17T15:13:54.126Z,7.80
2023-04-17T15:16:22.948Z,5.50
2023-04-17T15:18:51.687Z,7.80
2023-04-17T15:21:22.070Z,8.30
2023-04-17T15:23:51.627Z,7.10
2023-04-17T15:26:20.518Z,7.60
2023-04-17T15:28:50.979Z,8.40
2023-04-17T15:31:20.510Z,8.20
2023-04-17T15:33:50.772Z,7.70
2023-04-17T15:36:19.426Z,8.90
2023-04-17T15:38:49.396Z,9.00
2023-04-17T15:41:17.965Z,8.20
2023-04-17T15:43:48.400Z,9.40
2023-04-17T15:46:18.073Z,8.20
2023-04-17T15:49:00.921Z,8.00
2023-04-17T15:51:40.182Z,7.60
2023-04-17T15:54:12.251Z,6.30
2023-04-17T15:56:42.172Z,9.10
2023-04-17T15:59:11.851Z,8.70
2023-04-17T16:01:41.062Z,8.20
2023-04-17T16:04:09.825Z,9.80
2023-04-17T16:06:39.078Z,8.30
2023-04-17T16:09:07.731Z,9.70
2023-04-17T16:11:37.011Z,9.10
2023-04-17T16:14:06.112Z,8.80
2023-04-17T16:16:35.075Z,10.10
2023-04-17T16:19:04.607Z,11.00
2023-04-17T16:21:33.500Z,9.30
2023-04-17T16:24:04.946Z,9.30
2023-04-17T16:26:33.439Z,10.00
2023-04-17T16:29:02.116Z,9.60
2023-04-17T16:31:30.821Z,8.70
2023-04-17T16:33:59.603Z,11.10
2023-04-17T16:36:28.182Z,9.70
2023-04-17T16:38:56.762Z,9.70
2023-04-17T16:41:25.551Z,7.70
2023-04-17T16:43:54.136Z,8.20
2023-04-17T16:48:57.589Z,10.30
2023-04-17T16:51:26.546Z,9.10
2023-04-17T16:53:55.132Z,9.30
2023-04-17T16:56:23.819Z,8.80
2023-04-17T16:58:52.401Z,9.80
2023-04-17T17:01:21.116Z,9.00
2023-04-17T17:03:50.301Z,9.10
2023-04-17T17:06:19.079Z,9.80
2023-04-17T17:08:48.281Z,8.80
2023-04-17T17:11:18.374Z,8.30
2023-04-17T17:13:50.342Z,5.20
2023-04-17T17:16:21.143Z,7.60
2023-04-17T17:18:49.794Z,8.90
2023-04-17T17:21:18.541Z,7.90
2023-04-17T17:23:47.161Z,7.50
2023-04-17T17:26:17.384Z,7.80
2023-04-17T17:28:51.320Z,9.00
2023-04-17T17:31:20.811Z,8.10
2023-04-17T17:33:54.296Z,8.80
2023-04-17T17:36:23.185Z,10.30
2023-04-17T17:38:56.042Z,8.80
2023-04-17T17:41:25.065Z,11.20
2023-04-17T17:43:56.402Z,11.30
2023-04-17T17:46:25.325Z,9.60
2023-04-17T17:48:54.118Z,10.10
2023-04-17T17:51:23.910Z,9.70
2023-04-17T17:53:52.503Z,8.60
2023-04-17T17:56:23.761Z,10.40
2023-04-17T17:58:53.053Z,9.30
2023-04-17T18:01:23.813Z,10.50
2023-04-17T18:03:53.650Z,11.10
2023-04-17T18:06:22.591Z,10.80
2023-04-17T18:08:53.142Z,11.10
2023-04-17T18:11:21.902Z,11.10
2023-04-17T18:13:51.378Z,9.90
2023-04-17T18:16:20.244Z,9.20
2023-04-17T18:18:49.099Z,8.30
2023-04-17T18:21:17.678Z,9.00
2023-04-17T18:23:46.260Z,9.90
2023-04-17T18:26:15.159Z,9.60
2023-04-17T18:28:43.840Z,11.70
2023-04-17T18:31:13.306Z,12.70
2023-04-17T18:33:41.939Z,11.10
2023-04-17T18:36:10.924Z,10.20
2023-04-17T18:38:39.514Z,9.20
2023-04-17T18:41:08.402Z,8.50
2023-04-17T18:43:37.291Z,8.10
2023-04-17T18:46:07.969Z,7.40
2023-04-17T18:48:37.026Z,6.70
2023-04-17T18:51:14.783Z,9.20
2023-04-17T18:53:43.957Z,8.30
2023-04-17T18:56:15.225Z,9.40
2023-04-17T18:58:44.162Z,8.20
2023-04-17T19:01:12.868Z,6.70
2023-04-17T19:03:41.656Z,7.00
2023-04-17T19:06:10.438Z,6.50
2023-04-17T19:08:39.828Z,7.40
2023-04-17T19:11:08.514Z,6.80
2023-04-17T19:13:37.098Z,8.10
2023-04-17T19:16:06.045Z,8.00
2023-04-17T19:18:35.088Z,7.00
2023-04-17T19:21:04.091Z,7.30
2023-04-17T19:23:32.870Z,7.40
2023-04-17T19:26:01.578Z,7.00
2023-04-17T19:28:30.758Z,7.20
2023-04-17T19:31:01.086Z,7.10
2023-04-17T19:33:30.000Z,7.30
2023-04-17T19:35:58.910Z,6.80
2023-04-17T19:38:28.172Z,6.80
2023-04-17T19:41:18.269Z,6.70
2023-04-17T19:43:54.416Z,7.70
2023-04-17T19:46:24.741Z,5.20
2023-04-17T19:48:53.836Z,7.60
2023-04-17T19:51:22.320Z,7.30
2023-04-17T19:53:53.463Z,6.40
2023-04-17T19:56:22.062Z,7.40
2023-04-17T19:58:50.834Z,6.00
2023-04-17T20:01:19.552Z,7.30
2023-04-17T20:03:48.473Z,6.90
2023-04-17T20:06:19.353Z,6.30
2023-04-17T20:08:48.140Z,6.90
2023-04-17T20:11:17.146Z,6.50
2023-04-17T20:13:47.163Z,6.80
2023-04-17T20:16:15.886Z,6.30
2023-04-17T20:18:46.170Z,6.10
2023-04-17T20:21:14.755Z,5.10
2023-04-17T20:23:43.956Z,5.90
2023-04-17T20:26:12.567Z,5.20
2023-04-17T20:28:41.831Z,4.50
2023-04-17T20:31:10.560Z,3.60
2023-04-17T20:33:39.402Z,4.70
2023-04-17T20:36:08.408Z,5.20
2023-04-17T20:38:37.096Z,4.00
2023-04-17T20:41:05.778Z,4.60
2023-04-17T20:43:34.385Z,4.70
2023-04-17T20:46:05.243Z,4.40
2023-04-17T20:48:36.045Z,4.60
2023-04-17T20:51:07.531Z,4.20
2023-04-17T20:53:38.749Z,5.10
2023-04-17T20:56:09.267Z,4.60
2023-04-17T20:58:37.988Z,4.40
2023-04-17T21:01:06.750Z,4.80
2023-04-17T21:03:35.557Z,4.80
2023-04-17T21:06:04.428Z,4.60
2023-04-17T21:08:33.111Z,4.20
2023-04-17T21:11:01.697Z,5.00
2023-04-17T21:13:31.201Z,5.10
2023-04-17T21:15:59.702Z,4.70
2023-04-17T21:18:28.382Z,4.20
2023-04-17T21:20:57.070Z,3.10
2023-04-17T21:23:25.773Z,5.10
2023-04-17T21:25:55.152Z,4.90
2023-04-17T21:28:23.847Z,5.20
2023-04-17T21:30:52.656Z,4.70
2023-04-17T21:33:21.210Z,5.00
2023-04-17T21:35:50.988Z,4.90
2023-04-17T21:38:20.136Z,5.00
2023-04-17T21:40:51.335Z,4.40
2023-04-17T21:43:20.366Z,5.40
2023-04-17T21:45:50.135Z,5.20
2023-04-17T21:48:18.862Z,5.00
2023-04-17T21:50:47.445Z,5.20
2023-04-17T21:53:17.172Z,5.20
2023-04-17T21:55:46.166Z,5.00
2023-04-17T21:58:14.737Z,5.30
2023-04-17T22:00:43.561Z,5.60
2023-04-17T22:03:12.338Z,5.40
2023-04-17T22:05:42.968Z,6.10
2023-04-17T22:08:12.179Z,6.10
2023-04-17T22:10:40.975Z,5.90
2023-04-17T22:13:10.553Z,5.80
2023-04-17T22:15:39.159Z,5.30
2023-04-17T22:18:08.018Z,6.20
2023-04-17T22:21:52.380Z,5.60
2023-04-17T22:25:55.691Z,6.10
2023-04-17T22:29:58.285Z,7.10
2023-04-17T22:34:00.970Z,7.90
2023-04-17T22:38:04.378Z,8.40
2023-04-17T22:42:07.581Z,8.90
2023-04-17T22:46:10.214Z,8.50
2023-04-17T22:50:13.478Z,8.70
2023-04-17T22:54:22.755Z,8.80
2023-04-17T22:58:26.433Z,8.10
2023-04-17T23:02:29.857Z,6.80
2023-04-17T23:06:33.144Z,5.70
2023-04-17T23:09:22.114Z,6.40
2023-04-17T23:11:50.999Z,5.60
2023-04-17T23:14:19.785Z,6.00
2023-04-17T23:16:48.376Z,6.90
2023-04-17T23:19:17.058Z,7.70
2023-04-17T23:21:45.643Z,9.00
2023-04-17T23:24:15.010Z,10.90
2023-04-17T23:26:43.659Z,11.90
2023-04-17T23:29:12.417Z,10.50
2023-04-17T23:31:42.990Z,9.20
2023-04-17T23:34:11.984Z,8.90
2023-04-17T23:36:40.845Z,8.10
2023-04-17T23:39:09.628Z,7.20
2023-04-17T23:41:42.410Z,6.90
2023-04-17T23:44:11.128Z,6.90
2023-04-17T23:46:40.098Z,8.00
2023-04-17T23:49:09.040Z,8.40
2023-04-17T23:51:37.879Z,8.10
2023-04-17T23:54:08.202Z,7.70
2023-04-17T23:56:37.808Z,8.00
2023-04-17T23:59:06.294Z,9.30
